createdAt,value
2023-04-30T00:02:24.329Z,11.81
2023-04-30T00:06:07.236Z,11.85
2023-04-30T00:09:51.238Z,11.80
2023-04-30T00:13:34.641Z,11.79
2023-04-30T00:17:18.638Z,11.84
2023-04-30T00:21:01.335Z,11.85
2023-04-30T00:24:44.192Z,11.90
2023-04-30T00:28:26.867Z,11.94
2023-04-30T00:32:09.544Z,11.95
2023-04-30T00:35:53.674Z,12.01
2023-04-30T00:39:36.375Z,12.03
2023-04-30T00:43:18.976Z,12.12
2023-04-30T00:47:01.591Z,12.15
2023-04-30T00:50:45.310Z,12.18
2023-04-30T00:54:29.430Z,12.26
2023-04-30T00:58:12.135Z,12.30
2023-04-30T01:01:55.074Z,12.32
2023-04-30T01:05:37.706Z,12.39
2023-04-30T01:09:20.789Z,12.43
2023-04-30T01:13:13.902Z,12.43
2023-04-30T01:17:04.691Z,12.39
2023-04-30T01:20:50.796Z,12.32
2023-04-30T01:24:51.244Z,12.29
2023-04-30T01:28:37.123Z,12.28
2023-04-30T01:32:19.828Z,12.27
2023-04-30T01:36:21.142Z,12.28
2023-04-30T01:40:15.130Z,12.24
2023-04-30T01:44:10.054Z,12.24
2023-04-30T01:47:57.456Z,12.21
2023-04-30T01:51:42.254Z,12.18
2023-04-30T01:55:29.425Z,12.15
2023-04-30T01:59:15.149Z,12.16
2023-04-30T02:02:58.129Z,12.18
2023-04-30T02:06:41.517Z,12.19
2023-04-30T02:10:25.820Z,12.19
2023-04-30T02:14:08.455Z,12.17
2023-04-30T02:17:52.595Z,12.13
2023-04-30T02:21:35.311Z,12.11
2023-04-30T02:25:18.137Z,12.13
2023-04-30T02:29:00.775Z,12.13
2023-04-30T02:32:43.452Z,12.12
2023-04-30T02:36:27.529Z,12.08
2023-04-30T02:40:11.694Z,12.09
2023-04-30T02:43:54.411Z,12.13
2023-04-30T02:47:37.215Z,12.13
2023-04-30T02:51:20.017Z,12.11
2023-04-30T02:55:04.262Z,12.09
2023-04-30T02:58:46.919Z,12.02
2023-04-30T03:02:29.574Z,11.92
2023-04-30T03:06:12.332Z,11.83
2023-04-30T03:09:55.250Z,11.81
2023-04-30T03:13:39.428Z,11.81
2023-04-30T03:17:22.147Z,11.81
2023-04-30T03:21:04.852Z,11.75
2023-04-30T03:24:47.733Z,11.77
2023-04-30T03:28:30.366Z,11.72
2023-04-30T03:32:14.393Z,11.68
2023-04-30T03:35:57.024Z,11.66
2023-04-30T03:39:39.834Z,11.61
2023-04-30T03:43:23.096Z,11.62
2023-04-30T03:47:05.923Z,11.58
2023-04-30T03:50:50.214Z,11.53
2023-04-30T03:54:33.785Z,11.48
2023-04-30T03:58:16.490Z,11.49
2023-04-30T04:01:59.153Z,11.49
2023-04-30T04:05:42.017Z,11.50
2023-04-30T04:09:25.972Z,11.52
2023-04-30T04:13:08.633Z,11.56
2023-04-30T04:16:51.542Z,11.54
2023-04-30T04:20:34.299Z,11.51
2023-04-30T04:24:16.989Z,11.55
2023-04-30T04:28:01.020Z,11.56
2023-04-30T04:31:43.781Z,11.58
2023-04-30T04:35:26.726Z,11.57
2023-04-30T04:39:09.373Z,11.55
2023-04-30T04:42:52.395Z,11.56
2023-04-30T04:46:38.688Z,11.51
2023-04-30T04:50:21.499Z,11.47
2023-04-30T04:54:04.599Z,11.46
2023-04-30T04:57:47.291Z,11.37
2023-04-30T05:01:29.970Z,11.42
2023-04-30T05:05:13.999Z,11.35
2023-04-30T05:08:56.692Z,11.31
2023-04-30T05:12:39.337Z,11.34
2023-04-30T05:16:21.976Z,11.34
2023-04-30T05:20:07.197Z,11.40
2023-04-30T05:23:51.236Z,11.46
2023-04-30T05:27:34.163Z,11.49
2023-04-30T05:31:20.943Z,11.51
2023-04-30T05:35:07.270Z,11.53
2023-04-30T05:38:51.688Z,11.58
2023-04-30T05:42:34.467Z,11.67
2023-04-30T05:46:17.354Z,11.68
2023-04-30T05:50:00.049Z,11.65
2023-04-30T05:53:42.718Z,11.65
2023-04-30T05:57:26.758Z,11.66
2023-04-30T06:01:11.090Z,11.63
2023-04-30T06:04:53.859Z,11.64
2023-04-30T06:08:36.529Z,11.67
2023-04-30T06:12:19.142Z,11.72
2023-04-30T06:16:03.422Z,11.81
2023-04-30T06:19:46.095Z,11.84
2023-04-30T06:23:28.757Z,11.94
2023-04-30T06:27:11.392Z,11.95
2023-04-30T06:30:54.340Z,12.01
2023-04-30T06:34:39.551Z,12.14
2023-04-30T06:38:22.193Z,12.19
2023-04-30T06:42:05.061Z,12.30
2023-04-30T06:45:47.714Z,12.41
2023-04-30T06:49:33.391Z,12.56
2023-04-30T06:53:17.407Z,12.65
2023-04-30T06:57:00.053Z,12.74
2023-04-30T07:00:42.759Z,12.64
2023-04-30T07:04:26.122Z,12.65
2023-04-30T07:08:09.004Z,12.66
2023-04-30T07:11:53.019Z,12.74
2023-04-30T07:15:35.772Z,12.73
2023-04-30T07:19:18.558Z,12.76
2023-04-30T07:23:01.219Z,12.79
2023-04-30T07:26:43.902Z,12.90
2023-04-30T07:30:28.018Z,12.97
2023-04-30T07:34:10.654Z,13.09
2023-04-30T07:37:53.353Z,13.18
2023-04-30T07:41:36.130Z,13.33
2023-04-30T07:45:18.952Z,13.45
2023-04-30T07:49:04.057Z,13.49
2023-04-30T07:52:46.704Z,13.59
2023-04-30T07:56:29.359Z,13.58
2023-04-30T08:00:13.508Z,13.67
2023-04-30T08:03:56.306Z,13.82
2023-04-30T08:07:41.592Z,13.90
2023-04-30T08:11:24.194Z,14.06
2023-04-30T08:15:08.455Z,14.21
2023-04-30T08:18:51.316Z,14.30
2023-04-30T08:22:34.118Z,14.20
2023-04-30T08:26:18.149Z,14.09
2023-04-30T08:30:03.443Z,14.07
2023-04-30T08:33:46.058Z,13.82
2023-04-30T08:37:28.716Z,13.82
2023-04-30T08:41:13.168Z,14.05
2023-04-30T08:44:57.190Z,14.39
2023-04-30T08:48:40.665Z,14.46
2023-04-30T08:52:23.669Z,14.44
2023-04-30T08:56:07.066Z,14.42
2023-04-30T08:59:49.748Z,14.55
2023-04-30T09:03:33.917Z,14.68
2023-04-30T09:07:16.839Z,14.78
2023-04-30T09:10:59.497Z,14.89
2023-04-30T09:14:42.324Z,14.94
2023-04-30T09:18:24.984Z,15.03
2023-04-30T09:22:22.141Z,15.11
2023-04-30T09:26:04.902Z,15.20
2023-04-30T09:29:47.849Z,15.22
2023-04-30T09:33:46.638Z,15.10
2023-04-30T09:37:38.156Z,15.08
2023-04-30T09:41:25.658Z,15.08
2023-04-30T09:45:09.732Z,14.95
2023-04-30T09:49:03.803Z,14.90
2023-04-30T09:52:54.127Z,14.95
2023-04-30T09:56:40.802Z,15.70
2023-04-30T10:00:24.116Z,15.95
2023-04-30T10:04:07.115Z,15.66
2023-04-30T10:07:51.195Z,15.68
2023-04-30T10:11:34.793Z,15.72
2023-04-30T10:15:21.192Z,15.71
2023-04-30T10:19:08.463Z,15.73
2023-04-30T10:22:52.903Z,15.76
2023-04-30T10:26:36.159Z,15.78
2023-04-30T10:30:19.398Z,15.80
2023-04-30T10:34:07.983Z,15.82
2023-04-30T10:37:55.969Z,15.95
2023-04-30T10:41:40.150Z,16.00
2023-04-30T10:45:35.893Z,16.05
2023-04-30T10:49:26.057Z,16.15
2023-04-30T10:53:13.970Z,16.27
2023-04-30T10:57:11.557Z,16.28
2023-04-30T11:01:02.996Z,16.24
2023-04-30T11:05:12.868Z,16.44
2023-04-30T11:09:05.051Z,16.42
2023-04-30T11:12:51.680Z,16.24
2023-04-30T11:16:36.612Z,16.19
2023-04-30T11:20:22.514Z,16.17
2023-04-30T11:24:08.012Z,16.35
2023-04-30T11:27:52.572Z,16.49
2023-04-30T11:31:35.578Z,16.62
2023-04-30T11:35:19.793Z,16.67
2023-04-30T11:39:06.166Z,16.74
2023-04-30T11:42:50.702Z,16.70
2023-04-30T11:46:33.527Z,16.69
2023-04-30T11:50:17.448Z,16.73
2023-04-30T11:54:01.001Z,16.70
2023-04-30T11:57:44.825Z,16.79
2023-04-30T12:01:29.485Z,16.85
2023-04-30T12:05:17.038Z,16.88
2023-04-30T12:09:01.507Z,16.74
2023-04-30T12:12:45.006Z,16.84
2023-04-30T12:16:29.778Z,16.91
2023-04-30T12:20:14.633Z,16.96
2023-04-30T12:23:57.541Z,16.94
2023-04-30T12:27:40.598Z,17.03
2023-04-30T12:31:23.276Z,16.95
2023-04-30T12:35:08.587Z,16.97
2023-04-30T12:38:51.174Z,17.01
2023-04-30T12:42:35.010Z,17.23
2023-04-30T12:46:27.686Z,17.45
2023-04-30T12:50:13.036Z,17.67
2023-04-30T12:53:55.785Z,17.87
2023-04-30T12:57:38.451Z,18.14
2023-04-30T13:01:23.851Z,18.23
2023-04-30T13:05:08.834Z,18.38
2023-04-30T13:08:58.930Z,18.47
2023-04-30T13:12:43.804Z,18.39
2023-04-30T13:16:26.720Z,18.22
2023-04-30T13:20:11.111Z,18.21
2023-04-30T13:23:56.660Z,18.45
2023-04-30T13:27:40.698Z,18.87
2023-04-30T13:31:24.666Z,19.10
2023-04-30T13:35:12.520Z,19.12
2023-04-30T13:38:58.843Z,19.28
2023-04-30T13:42:43.241Z,19.42
2023-04-30T13:46:26.086Z,19.49
2023-04-30T13:50:09.713Z,19.75
2023-04-30T13:53:52.721Z,19.85
2023-04-30T13:57:39.771Z,19.73
2023-04-30T14:01:22.646Z,19.60
2023-04-30T14:05:06.936Z,19.68
2023-04-30T14:08:50.563Z,19.75
2023-04-30T14:12:34.707Z,19.76
2023-04-30T14:16:19.914Z,19.58
2023-04-30T14:20:02.624Z,19.44
2023-04-30T14:23:47.056Z,19.45
2023-04-30T14:27:29.775Z,19.56
2023-04-30T14:31:12.703Z,20.09
2023-04-30T14:34:56.796Z,20.25
2023-04-30T14:38:39.408Z,20.50
2023-04-30T14:42:22.102Z,20.72
2023-04-30T14:46:06.352Z,20.89
2023-04-30T14:49:52.022Z,20.87
2023-04-30T14:53:37.160Z,20.27
2023-04-30T14:57:19.839Z,19.87
2023-04-30T15:01:02.929Z,19.74
2023-04-30T15:04:46.307Z,20.42
2023-04-30T15:08:29.557Z,20.54
2023-04-30T15:12:14.061Z,20.40
2023-04-30T15:15:56.768Z,20.37
2023-04-30T15:19:39.493Z,20.58
2023-04-30T15:23:22.666Z,21.24
2023-04-30T15:27:05.449Z,21.76
2023-04-30T15:30:49.601Z,22.18
2023-04-30T15:34:32.244Z,22.58
2023-04-30T15:38:14.948Z,23.17
2023-04-30T15:41:57.852Z,23.16
2023-04-30T15:45:40.660Z,22.61
2023-04-30T15:49:25.084Z,21.98
2023-04-30T15:53:08.073Z,21.52
2023-04-30T15:56:51.455Z,21.54
2023-04-30T16:00:34.439Z,21.68
2023-04-30T16:04:17.342Z,21.96
2023-04-30T16:08:01.686Z,21.97
2023-04-30T16:11:44.344Z,21.70
2023-04-30T16:15:27.609Z,21.31
2023-04-30T16:19:12.357Z,20.98
2023-04-30T16:22:56.349Z,20.91
2023-04-30T16:26:40.514Z,20.81
2023-04-30T16:30:23.375Z,20.35
2023-04-30T16:34:11.288Z,20.05
2023-04-30T16:37:54.942Z,19.58
2023-04-30T16:41:37.621Z,19.23
2023-04-30T16:45:21.914Z,18.93
2023-04-30T16:49:04.727Z,18.83
2023-04-30T16:52:47.521Z,18.58
2023-04-30T16:56:30.256Z,18.32
2023-04-30T17:00:14.510Z,18.07
2023-04-30T17:03:58.680Z,17.96
2023-04-30T17:07:43.309Z,17.69
2023-04-30T17:11:26.169Z,17.46
2023-04-30T17:15:09.566Z,17.31
2023-04-30T17:18:52.190Z,17.19
2023-04-30T17:22:38.156Z,17.00
2023-04-30T17:26:21.518Z,16.87
2023-04-30T17:30:06.362Z,16.62
2023-04-30T17:33:49.135Z,16.48
2023-04-30T17:37:31.886Z,16.30
2023-04-30T17:41:18.429Z,16.15
2023-04-30T17:45:02.211Z,16.06
2023-04-30T17:48:45.019Z,15.99
2023-04-30T17:52:27.765Z,15.90
2023-04-30T17:56:10.465Z,15.71
2023-04-30T17:59:54.995Z,15.51
2023-04-30T18:03:38.039Z,15.41
2023-04-30T18:07:20.909Z,15.27
2023-04-30T18:11:03.781Z,15.08
2023-04-30T18:14:46.502Z,15.03
2023-04-30T18:22:43.279Z,14.86
2023-04-30T18:26:26.192Z,14.83
2023-04-30T18:30:09.681Z,14.71
2023-04-30T18:33:53.849Z,14.63
2023-04-30T18:37:36.535Z,14.55
2023-04-30T18:41:21.082Z,14.42
2023-04-30T18:45:04.096Z,14.35
2023-04-30T18:48:46.801Z,14.29
2023-04-30T18:52:30.909Z,14.24
2023-04-30T18:56:14.468Z,14.24
2023-04-30T18:59:57.502Z,14.21
2023-04-30T19:03:40.633Z,14.13
2023-04-30T19:07:23.360Z,14.09
2023-04-30T19:11:07.374Z,14.06
2023-04-30T19:14:50.247Z,14.05
2023-04-30T19:18:33.568Z,14.04
2023-04-30T19:22:16.217Z,14.01
2023-04-30T19:26:02.071Z,13.95
2023-04-30T19:29:47.076Z,13.90
2023-04-30T19:33:30.977Z,13.88
2023-04-30T19:37:13.741Z,13.84
2023-04-30T19:40:56.406Z,13.80
2023-04-30T19:44:39.144Z,13.79
2023-04-30T19:48:24.187Z,13.77
2023-04-30T19:52:07.951Z,13.69
2023-04-30T19:55:51.129Z,13.66
2023-04-30T19:59:33.837Z,13.62
2023-04-30T20:03:17.528Z,13.59
2023-04-30T20:07:01.586Z,13.57
2023-04-30T20:10:44.252Z,13.55
2023-04-30T20:14:27.224Z,13.50
2023-04-30T20:18:10.361Z,13.46
2023-04-30T20:21:53.622Z,13.44
2023-04-30T20:25:37.713Z,13.41
2023-04-30T20:29:20.708Z,13.38
2023-04-30T20:33:03.868Z,13.32
2023-04-30T20:36:48.889Z,13.29
2023-04-30T20:40:31.896Z,13.28
2023-04-30T20:44:15.900Z,13.29
2023-04-30T20:47:58.533Z,13.24
2023-04-30T20:51:41.312Z,13.21
2023-04-30T20:55:26.887Z,13.19
2023-04-30T20:59:09.551Z,13.16
2023-04-30T21:02:54.637Z,13.13
2023-04-30T21:06:38.309Z,13.09
2023-04-30T21:10:21.276Z,13.07
2023-04-30T21:14:04.104Z,13.04
2023-04-30T21:17:48.290Z,13.01
2023-04-30T21:21:32.365Z,12.92
2023-04-30T21:25:15.021Z,12.89
2023-04-30T21:28:57.720Z,12.84
2023-04-30T21:32:44.045Z,12.78
2023-04-30T21:36:29.889Z,12.76
2023-04-30T21:40:14.441Z,12.75
2023-04-30T21:43:59.796Z,12.72
2023-04-30T21:47:42.770Z,12.72
2023-04-30T21:51:25.768Z,12.71
2023-04-30T21:55:09.707Z,12.69
2023-04-30T21:58:53.753Z,12.63
2023-04-30T22:02:36.972Z,12.62
2023-04-30T22:06:19.832Z,12.54
2023-04-30T22:10:02.872Z,12.45
2023-04-30T22:13:45.527Z,12.47
2023-04-30T22:17:29.747Z,12.49
2023-04-30T22:21:12.441Z,12.51
2023-04-30T22:24:55.171Z,12.48
2023-04-30T22:28:38.061Z,12.48
2023-04-30T22:32:20.799Z,12.42
2023-04-30T22:36:06.287Z,12.43
2023-04-30T22:39:49.002Z,12.42
2023-04-30T22:43:31.837Z,12.39
2023-04-30T22:47:14.580Z,12.35
2023-04-30T22:50:58.717Z,12.30
2023-04-30T22:54:42.901Z,12.29
2023-04-30T22:58:25.578Z,12.26
2023-04-30T23:02:08.239Z,12.23
2023-04-30T23:05:51.604Z,12.18
2023-04-30T23:09:34.884Z,12.19
2023-04-30T23:13:19.363Z,12.13
2023-04-30T23:17:02.179Z,12.12
2023-04-30T23:20:44.838Z,12.09
2023-04-30T23:24:27.564Z,12.06
2023-04-30T23:28:10.265Z,12.05
2023-04-30T23:31:55.200Z,12.00
2023-04-30T23:35:38.145Z,11.97
2023-04-30T23:39:20.902Z,11.93
2023-04-30T23:43:03.542Z,11.88
2023-04-30T23:46:46.902Z,11.86
2023-04-30T23:50:31.210Z,11.85
2023-04-30T23:54:13.889Z,11.80
2023-04-30T23:57:59.364Z,11.79
